Portada
METAR-TAF:

METAR-TAF

Aeroports :

Tasiujaq, Quebec, Canadà

latitud: 58-40N, longitud: 069-57W, altitud: 31 m

Observació

L'informe es va fer fa 1 hora i 22 minuts, a les 01:28 UTC
Vent 9 kt del Nord/Nord-Oest
Temperatura 1°C
Humitat 69%
Pressió 1021 hPa
Visibilitat: 19.3 km
Cel cobert a una alçada de 1200 ft

METAR: CYTQ 270128Z 33009KT 12SM OVC012 01/M04 A3016 RMK SC8 SLP219

Hora: 22:50 (02:50 UTC)

Pronòstic

L'informe es va fer fa 9 hores i 47 minuts, a les 17:03 UTC
Pronòstic vàlid del 26 a les 17 UTC al 26 a les 21 UTC
Vent 22 kt del Oest/Nord-Oest amb ràfegues de 32 kt
Visibilitat: 10 km
Núvols disperses a una alçada de 1200 ft
Temporalment
l' 26 a les 17 UTC al 26 a les 21 UTC
Cel ennuvolat a una alçada de 1200 ft

TAF: CYTQ 261703Z 2617/2621 30022G32KT P6SM SCT012 TEMPO 2617/2621 BKN012 RMK NXT FCST WILL BE ISSUED AT 271345Z

Observacions i pronòstics meteorològics de més de 4000 aeroports (METAR i TAF).

Les estacions disponibles són els punts grocs i vermells al mapa.

Posi el ratolí al punt desitjat per veure el nom de l'estació.

Feu clic per veure les observacions i els pronòstics meteorològics.

Per canviar el mapa: feu clic els botons verds amb una creu de color negre per apropar; al botó verd amb un guió per allunyar la imatge; o en les fletxes verdes per a mapes adjacents.


METAR-TAF: